This is the latest recevied weather packets stored in our database for station/object CA3DPI. If no packets are shown the sender has not sent any weather packets the latest 1 day(s).
| Time | Temp. | Humidity | Pressure | Rain* | Wind** | Luminosity | Snow |
|---|---|---|---|---|---|---|---|
| 1778092030 | 21.67° C | 47% | 1020.9 hPa | - | - | - | - |
| 1778091430 | 21.11° C | 52% | 1021 hPa | - | - | - | - |
| 1778090830 | 21.11° C | 51% | 1021 hPa | - | - | - | - |
| 1778087229 | 19.44° C | 52% | 1021 hPa | - | - | - | - |
| 1778080027 | 22.78° C | 41% | 1019.9 hPa | - | - | - | - |
| 1778078232 | 20° C | 43% | 1019.9 hPa | - | - | - | - |
| 1778077032 | 20.56° C | 43% | 1019.8 hPa | - | - | - | - |
| 1778075231 | 21.11° C | 44% | 1020 hPa | - | - | - | - |
| 1778074630 | 20.56° C | 44% | 1020.2 hPa | - | - | - | - |
| 1778074030 | 20° C | 44% | 1020.3 hPa | - | - | - | - |
| 1778071629 | 16.11° C | 46% | 1020.4 hPa | - | - | - | - |
| 1778071029 | 15° C | 43% | 1020.3 hPa | - | - | - | - |
| 1778070429 | 14.44° C | 50% | 1020.6 hPa | - | - | - | - |
| 1778069829 | 13.89° C | 45% | 1020.2 hPa | - | - | - | - |
| 1778066828 | 11.67° C | 53% | 1020.1 hPa | - | - | - | - |
| 1778066228 | 11.67° C | 50% | 1019.9 hPa | - | - | - | - |
| 1778063227 | 12.22° C | 51% | 1019.3 hPa | - | - | - | - |
| 1778062627 | 12.22° C | 51% | 1019.1 hPa | - | - | - | - |
| 1778060226 | 12.78° C | 52% | 1018.8 hPa | - | - | - | - |
| 1778059626 | 12.78° C | 52% | 1018.7 hPa | - | - | - | - |
| 1778059026 | 12.22° C | 53% | 1018.6 hPa | - | - | - | - |
| 1778055432 | 13.33° C | 53% | 1017.9 hPa | - | - | - | - |
| 1778054832 | 13.33° C | 52% | 1017.9 hPa | - | - | - | - |
| 1778054232 | 13.33° C | 53% | 1017.8 hPa | - | - | - | - |
| 1778053632 | 13.33° C | 52% | 1018.2 hPa | - | - | - | - |
* Rain since midnight (hover to see other rain measurements)
** Current wind speed in m/s (hover to see current wind gust speed)